Time;durP1;ratioP1;P1;durP2;ratioP2;P2;SDS_P1;SDS_P2;PMS_P1;PMS_P2;Temp;Humidity;BMP_temperature;BMP_pressure;BME280_temperature;BME280_humidity;BME280_pressure;Samples;Min_cycle;Max_cycle;Signal;HPM_P1;HPM_P2
2023/10/04 00:01:14;;;;;;;10.85;2.42;;;13.00;99.90;;;;;;5054953;28;20049;-86
2023/10/04 00:03:40;;;;;;;8.05;1.50;;;13.00;99.90;;;;;;5051877;28;20065;-82
2023/10/04 00:06:06;;;;;;;5.10;1.45;;;12.90;99.90;;;;;;5043823;28;20075;-83
2023/10/04 00:08:31;;;;;;;10.93;2.17;;;13.00;99.90;;;;;;5044821;28;20080;-84
2023/10/04 00:10:57;;;;;;;4.63;1.20;;;13.00;99.90;;;;;;5053830;28;20392;-84
2023/10/04 00:13:26;;;;;;;6.28;1.75;;;13.00;99.90;;;;;;5049592;28;20465;-85
2023/10/04 00:15:54;;;;;;;8.50;1.40;;;13.00;99.90;;;;;;5050349;28;20052;-83
2023/10/04 00:18:20;;;;;;;6.75;1.70;;;13.00;99.90;;;;;;5048703;28;20487;-84
2023/10/04 00:20:46;;;;;;;8.57;1.77;;;13.00;99.90;;;;;;5050147;28;20053;-84
2023/10/04 00:23:13;;;;;;;9.45;1.90;;;13.00;99.90;;;;;;5053951;28;20052;-83
2023/10/04 00:25:39;;;;;;;8.70;1.58;;;12.90;99.90;;;;;;5038743;28;20049;-86
2023/10/04 00:28:09;;;;;;;9.48;1.95;;;12.90;99.90;;;;;;5056344;28;20465;-86
2023/10/04 00:30:35;;;;;;;8.68;1.55;;;12.90;99.90;;;;;;5031493;28;20037;-85
2023/10/04 00:33:04;;;;;;;10.70;2.17;;;12.90;99.90;;;;;;5050346;28;20084;-85
2023/10/04 00:35:30;;;;;;;7.20;1.42;;;12.90;99.90;;;;;;5026251;28;20454;-85
2023/10/04 00:38:00;;;;;;;8.18;1.50;;;12.90;99.90;;;;;;5044755;28;20049;-86
2023/10/04 00:40:36;;;;;;;8.93;1.60;;;12.90;99.90;;;;;;5041258;28;20045;-86
2023/10/04 00:43:13;;;;;;;11.85;2.00;;;12.90;99.90;;;;;;5024802;28;20049;-84
2023/10/04 00:45:41;;;;;;;11.23;2.25;;;12.90;99.90;;;;;;5043816;28;20049;-85
2023/10/04 00:48:11;;;;;;;7.65;1.38;;;12.90;99.90;;;;;;5056389;28;20119;-85
2023/10/04 00:50:38;;;;;;;10.02;1.67;;;12.90;99.90;;;;;;5056079;28;20056;-86
2023/10/04 00:53:17;;;;;;;5.97;1.45;;;12.80;99.90;;;;;;5043171;28;20045;-85
2023/10/04 00:55:46;;;;;;;6.57;1.63;;;12.90;99.90;;;;;;5043978;28;20120;-85
2023/10/04 00:58:19;;;;;;;4.40;1.13;;;12.80;99.90;;;;;;5046632;28;20460;-84
2023/10/04 01:00:47;;;;;;;9.50;1.80;;;12.80;99.90;;;;;;5055343;28;20106;-85
2023/10/04 01:03:24;;;;;;;5.95;1.40;;;12.80;99.90;;;;;;5049383;28;20465;-85
2023/10/04 01:05:51;;;;;;;9.40;1.90;;;12.80;99.90;;;;;;5033257;28;20045;-86
2023/10/04 01:08:24;;;;;;;9.93;1.90;;;12.70;99.90;;;;;;5042943;28;20049;-86
2023/10/04 01:10:54;;;;;;;10.43;1.95;;;12.80;99.90;;;;;;5053024;28;20045;-86
2023/10/04 01:13:26;;;;;;;6.00;1.40;;;12.80;99.90;;;;;;5051388;28;20087;-84
2023/10/04 01:15:55;;;;;;;10.45;1.88;;;12.70;99.90;;;;;;5048132;28;20443;-85
2023/10/04 01:18:22;;;;;;;7.15;1.83;;;12.70;99.90;;;;;;5044230;28;20110;-85
2023/10/04 01:20:49;;;;;;;7.18;1.60;;;12.70;99.90;;;;;;5024633;28;20104;-83
2023/10/04 01:23:15;;;;;;;7.78;1.92;;;12.70;99.90;;;;;;5014061;28;20052;-85
2023/10/04 01:25:50;;;;;;;8.00;1.75;;;12.70;99.90;;;;;;5050564;28;20112;-86
2023/10/04 01:28:18;;;;;;;7.95;2.10;;;12.70;99.90;;;;;;5045660;28;20480;-83
2023/10/04 01:30:47;;;;;;;10.98;1.60;;;12.70;99.90;;;;;;5044571;28;20049;-85
2023/10/04 01:33:20;;;;;;;9.98;1.58;;;12.70;99.90;;;;;;5042311;28;20041;-83
2023/10/04 01:35:51;;;;;;;8.50;1.85;;;12.70;99.90;;;;;;5043285;28;20056;-85
2023/10/04 01:38:24;;;;;;;12.07;2.03;;;12.70;99.90;;;;;;5022131;28;20071;-85
2023/10/04 01:40:51;;;;;;;8.02;1.50;;;12.60;99.90;;;;;;5041896;28;20461;-85
2023/10/04 01:43:16;;;;;;;10.32;2.10;;;12.60;99.90;;;;;;5053623;28;20045;-86
2023/10/04 01:45:53;;;;;;;9.18;1.33;;;12.60;99.90;;;;;;5046775;28;20130;-85
2023/10/04 01:48:19;;;;;;;5.50;1.60;;;12.60;99.90;;;;;;5054973;28;20053;-83
2023/10/04 01:50:52;;;;;;;10.43;2.00;;;12.60;99.90;;;;;;5052305;28;20068;-86
2023/10/04 01:53:20;;;;;;;8.75;1.98;;;12.60;99.90;;;;;;5035244;28;20045;-85
2023/10/04 01:55:46;;;;;;;15.43;2.85;;;12.60;99.90;;;;;;5052057;28;20049;-82
2023/10/04 01:58:18;;;;;;;10.63;1.73;;;12.60;99.90;;;;;;5054341;28;20154;-85
2023/10/04 02:00:43;;;;;;;12.02;1.98;;;12.50;99.90;;;;;;5033705;28;20044;-86
2023/10/04 02:03:09;;;;;;;11.15;2.08;;;12.60;99.90;;;;;;5031463;28;20056;-84
2023/10/04 02:05:40;;;;;;;8.35;1.80;;;12.60;99.90;;;;;;5048216;28;20057;-81
2023/10/04 02:08:09;;;;;;;15.32;2.47;;;12.50;99.90;;;;;;5045404;28;20091;-85
2023/10/04 02:10:36;;;;;;;7.25;1.55;;;12.60;99.90;;;;;;5029482;28;20047;-85
2023/10/04 02:13:06;;;;;;;8.10;2.22;;;12.60;99.90;;;;;;5040334;28;20052;-85
2023/10/04 02:15:37;;;;;;;7.82;1.85;;;12.60;99.90;;;;;;5035101;28;20049;-85
2023/10/04 02:18:04;;;;;;;7.78;1.48;;;12.60;99.90;;;;;;5045527;28;21972;-84
2023/10/04 02:20:35;;;;;;;11.73;2.13;;;12.60;99.90;;;;;;5047435;28;20068;-83
2023/10/04 02:23:07;;;;;;;11.80;1.85;;;12.60;99.90;;;;;;5044542;28;20145;-83
2023/10/04 02:25:34;;;;;;;9.30;1.75;;;12.60;99.90;;;;;;5047670;28;20045;-82
2023/10/04 02:28:06;;;;;;;10.50;1.83;;;12.60;99.90;;;;;;5049836;28;20124;-85
2023/10/04 02:30:34;;;;;;;15.45;2.67;;;12.60;99.90;;;;;;5043503;28;20069;-84
2023/10/04 02:33:01;;;;;;;10.93;2.28;;;12.50;99.90;;;;;;5046304;28;20512;-85
2023/10/04 02:35:28;;;;;;;8.68;2.13;;;12.50;99.90;;;;;;5044761;28;20041;-85
2023/10/04 02:38:09;;;;;;;16.23;1.65;;;12.60;99.90;;;;;;5031065;28;20565;-85
2023/10/04 02:40:39;;;;;;;10.73;1.47;;;12.60;99.90;;;;;;5054193;28;20045;-85
2023/10/04 02:43:07;;;;;;;10.38;1.92;;;12.50;99.90;;;;;;5054283;28;20306;-84
2023/10/04 02:45:35;;;;;;;11.15;1.73;;;12.60;99.90;;;;;;5049061;28;20045;-85
2023/10/04 02:48:01;;;;;;;11.60;2.15;;;12.50;99.90;;;;;;5052402;28;20416;-85
2023/10/04 02:50:27;;;;;;;11.52;2.60;;;12.50;99.90;;;;;;5054273;28;20045;-83
2023/10/04 02:52:53;;;;;;;8.90;2.38;;;12.50;99.90;;;;;;5053932;28;20049;-85
2023/10/04 02:55:32;;;;;;;9.70;1.42;;;12.50;99.90;;;;;;5032717;28;20052;-84
2023/10/04 02:57:59;;;;;;;10.60;2.00;;;12.50;99.90;;;;;;5050848;28;20049;-83
2023/10/04 03:00:49;;;;;;;6.60;1.50;;;12.50;99.90;;;;;;5049621;28;20067;-85
2023/10/04 03:03:19;;;;;;;9.95;1.92;;;12.50;99.90;;;;;;5038153;28;20087;-86
2023/10/04 03:05:48;;;;;;;8.35;1.50;;;12.50;99.90;;;;;;5027137;28;20037;-83
2023/10/04 03:08:17;;;;;;;8.90;1.88;;;12.50;99.90;;;;;;5046610;28;20052;-86
2023/10/04 03:10:55;;;;;;;7.93;1.40;;;12.50;99.90;;;;;;5048439;28;20109;-85
2023/10/04 03:13:27;;;;;;;3.30;1.17;;;12.50;99.90;;;;;;5048298;28;20059;-85
2023/10/04 03:15:54;;;;;;;14.63;2.03;;;12.40;99.90;;;;;;5042629;28;20041;-83
2023/10/04 03:18:25;;;;;;;10.93;1.95;;;12.50;99.90;;;;;;5050697;28;20106;-86
2023/10/04 03:23:32;;;;;;;14.30;2.38;;;12.50;99.90;;;;;;5027926;28;20084;-85
2023/10/04 03:26:01;;;;;;;12.55;2.17;;;12.40;99.90;;;;;;5048517;28;20045;-87
2023/10/04 03:28:33;;;;;;;8.23;1.77;;;12.50;99.90;;;;;;5053982;28;20114;-86
2023/10/04 03:31:04;;;;;;;13.57;3.22;;;12.40;99.90;;;;;;5047603;28;20425;-86
2023/10/04 03:33:35;;;;;;;10.03;1.90;;;12.40;99.90;;;;;;5052453;28;20049;-86
2023/10/04 03:36:04;;;;;;;10.00;1.73;;;12.40;99.90;;;;;;5047924;28;20223;-86
2023/10/04 03:38:33;;;;;;;9.85;1.85;;;12.40;99.90;;;;;;5060391;28;20049;-86
2023/10/04 03:41:00;;;;;;;10.02;2.20;;;12.40;99.90;;;;;;5044080;28;20055;-86
2023/10/04 03:43:30;;;;;;;7.00;1.20;;;12.40;99.90;;;;;;5048324;28;20050;-87
2023/10/04 03:46:16;;;;;;;11.50;1.83;;;12.40;99.90;;;;;;5048944;28;20088;-87
2023/10/04 03:48:43;;;;;;;8.07;1.52;;;12.40;99.90;;;;;;5060187;28;20090;-85
2023/10/04 03:51:09;;;;;;;9.70;2.38;;;12.40;99.90;;;;;;5043414;28;20058;-86
2023/10/04 03:53:38;;;;;;;9.65;2.83;;;12.40;99.90;;;;;;5061243;28;20045;-86
2023/10/04 03:56:04;;;;;;;7.57;1.80;;;12.40;99.90;;;;;;5059236;28;20064;-85
2023/10/04 03:58:35;;;;;;;11.32;1.98;;;12.40;99.90;;;;;;5043492;28;20049;-86
2023/10/04 04:01:01;;;;;;;9.18;2.35;;;12.40;99.90;;;;;;5038483;28;20115;-86
2023/10/04 04:03:28;;;;;;;13.93;2.47;;;12.40;99.90;;;;;;5045520;28;20037;-88
2023/10/04 04:05:54;;;;;;;8.38;2.00;;;12.40;99.90;;;;;;5036271;28;20052;-86
2023/10/04 04:08:20;;;;;;;9.20;2.25;;;12.40;99.90;;;;;;5041883;28;20041;-89
2023/10/04 04:10:46;;;;;;;10.68;2.38;;;12.40;99.90;;;;;;5055059;28;20488;-88
2023/10/04 04:13:13;;;;;;;9.07;2.30;;;12.40;99.90;;;;;;5053694;28;20044;-86
2023/10/04 04:15:39;;;;;;;12.27;2.17;;;12.40;99.90;;;;;;5055290;28;20107;-86
2023/10/04 04:18:10;;;;;;;17.83;3.20;;;12.40;99.90;;;;;;5048106;28;20073;-88
2023/10/04 04:20:36;;;;;;;7.75;1.63;;;12.40;99.90;;;;;;5042874;28;20057;-88
2023/10/04 04:23:05;;;;;;;15.60;2.70;;;12.30;99.90;;;;;;5040352;28;20095;-87
2023/10/04 04:25:30;;;;;;;12.13;2.30;;;12.30;99.90;;;;;;5035809;28;20049;-86
2023/10/04 04:27:56;;;;;;;6.47;1.27;;;12.30;99.90;;;;;;5052557;28;20048;-87
2023/10/04 04:30:28;;;;;;;11.55;2.28;;;12.30;99.90;;;;;;5045011;28;20048;-87
2023/10/04 04:32:57;;;;;;;13.75;2.22;;;12.30;99.90;;;;;;5051755;28;20067;-86
2023/10/04 04:35:47;;;;;;;8.30;1.70;;;12.30;99.90;;;;;;5037618;28;20100;-85
2023/10/04 04:38:21;;;;;;;15.75;2.70;;;12.30;99.90;;;;;;5049840;28;20740;-86
2023/10/04 04:40:49;;;;;;;12.80;2.20;;;12.30;99.90;;;;;;5035199;28;20454;-88
2023/10/04 04:45:52;;;;;;;10.68;1.92;;;12.30;99.90;;;;;;5046089;28;20072;-89
2023/10/04 04:48:23;;;;;;;7.57;1.92;;;12.30;99.90;;;;;;5047415;28;20044;-87
2023/10/04 04:51:12;;;;;;;12.68;2.55;;;12.30;99.90;;;;;;5042911;28;20041;-89
2023/10/04 04:53:42;;;;;;;11.75;2.03;;;12.30;99.90;;;;;;5043804;28;20106;-90
2023/10/04 04:56:15;;;;;;;10.85;2.90;;;12.30;99.90;;;;;;5053796;28;20094;-86
2023/10/04 04:58:42;;;;;;;13.40;2.35;;;12.30;99.90;;;;;;5053856;28;20052;-88
2023/10/04 05:01:16;;;;;;;10.70;2.20;;;12.30;99.90;;;;;;5042375;28;20087;-88
2023/10/04 05:03:45;;;;;;;;;;;12.30;99.90;;;;;;5048414;28;20136;-89
2023/10/04 05:06:20;;;;;;;9.48;2.40;;;12.30;99.90;;;;;;5042321;28;19921;-88
2023/10/04 05:08:46;;;;;;;14.23;2.63;;;12.30;99.90;;;;;;5037876;28;20046;-85
2023/10/04 05:11:12;;;;;;;12.93;2.30;;;12.30;99.90;;;;;;5046347;28;20040;-85
2023/10/04 05:13:39;;;;;;;9.82;2.90;;;12.30;99.90;;;;;;5049642;28;20064;-84
2023/10/04 05:16:05;;;;;;;8.85;2.08;;;12.30;99.90;;;;;;5053039;28;20049;-86
2023/10/04 05:18:31;;;;;;;11.95;2.70;;;12.30;99.90;;;;;;5047541;28;20056;-86
2023/10/04 05:20:57;;;;;;;8.95;2.33;;;12.30;99.90;;;;;;5038352;28;20084;-84
2023/10/04 05:23:27;;;;;;;9.65;2.33;;;12.40;99.90;;;;;;5036287;28;20091;-86
2023/10/04 05:25:54;;;;;;;15.65;2.28;;;12.40;99.90;;;;;;5044505;28;20161;-84
2023/10/04 05:28:24;;;;;;;6.95;1.73;;;12.40;99.90;;;;;;5052127;28;20052;-83
2023/10/04 05:30:51;;;;;;;12.48;2.30;;;12.40;99.90;;;;;;5043051;28;20047;-85
2023/10/04 05:33:19;;;;;;;11.98;2.40;;;12.40;99.90;;;;;;5036808;28;20178;-85
2023/10/04 05:35:47;;;;;;;9.73;2.25;;;12.40;99.90;;;;;;5043048;28;20057;-85
2023/10/04 05:38:14;;;;;;;9.05;2.33;;;12.40;99.90;;;;;;5045513;28;20504;-84
2023/10/04 05:40:45;;;;;;;12.85;3.63;;;12.40;99.90;;;;;;5048797;28;20045;-84
2023/10/04 05:43:12;;;;;;;7.35;2.20;;;12.30;99.90;;;;;;5041592;28;20051;-85
2023/10/04 05:45:39;;;;;;;12.75;2.47;;;12.40;99.90;;;;;;5034429;28;20127;-85
2023/10/04 05:48:08;;;;;;;11.23;2.40;;;12.40;99.90;;;;;;5053539;28;20072;-86
2023/10/04 05:50:37;;;;;;;9.43;2.28;;;12.40;99.90;;;;;;5056114;28;20077;-85
2023/10/04 05:53:06;;;;;;;10.98;2.40;;;12.40;99.90;;;;;;5033255;28;20484;-85
2023/10/04 05:55:35;;;;;;;9.70;2.67;;;12.40;99.90;;;;;;5054067;28;20084;-84
2023/10/04 05:58:02;;;;;;;12.63;2.50;;;12.40;99.90;;;;;;5029208;28;20102;-84
2023/10/04 06:00:33;;;;;;;11.32;2.75;;;12.40;99.90;;;;;;5041785;28;20493;-85
2023/10/04 06:03:06;;;;;;;9.98;3.08;;;12.40;99.90;;;;;;5031352;28;20080;-83
2023/10/04 06:05:34;;;;;;;15.75;2.95;;;12.40;99.90;;;;;;5051486;28;20456;-88
2023/10/04 06:08:35;;;;;;;11.35;2.30;;;12.40;99.90;;;;;;5047654;28;20735;-90
2023/10/04 06:10:54;;;;;;;12.20;2.97;;;12.40;99.90;;;;;;5039113;28;20061;-86
2023/10/04 06:13:22;;;;;;;13.38;3.08;;;12.40;99.90;;;;;;5043588;28;20046;-87
2023/10/04 06:15:50;;;;;;;8.18;2.00;;;12.40;99.90;;;;;;5046296;28;20075;-89
2023/10/04 06:18:18;;;;;;;15.05;3.20;;;12.40;99.90;;;;;;5057018;28;20037;-89
2023/10/04 06:20:45;;;;;;;15.00;2.80;;;12.50;99.90;;;;;;5053556;28;20048;-91
2023/10/04 06:23:15;;;;;;;11.00;2.53;;;12.40;99.90;;;;;;5057589;28;20064;-90
2023/10/04 06:25:45;;;;;;;18.13;3.28;;;12.50;99.90;;;;;;5060699;28;20098;-91
2023/10/04 06:28:13;;;;;;;12.95;2.78;;;12.50;99.90;;;;;;5061461;28;20104;-88
2023/10/04 06:30:40;;;;;;;13.90;2.60;;;12.50;99.90;;;;;;5045161;28;20083;-90
2023/10/04 06:33:08;;;;;;;10.93;2.30;;;12.50;99.90;;;;;;5052399;28;20055;-89
2023/10/04 06:35:38;;;;;;;10.63;2.83;;;12.50;99.90;;;;;;5027393;28;20041;-87
2023/10/04 06:38:06;;;;;;;12.15;2.63;;;12.50;99.90;;;;;;5057115;28;20081;-85
2023/10/04 06:40:34;;;;;;;19.48;3.10;;;12.50;99.90;;;;;;5053114;28;20033;-85
2023/10/04 06:43:10;;;;;;;10.93;2.75;;;12.50;99.90;;;;;;5037734;28;20176;-85
2023/10/04 06:45:39;;;;;;;10.50;2.42;;;12.50;99.90;;;;;;5047199;28;20537;-86
2023/10/04 06:48:06;;;;;;;10.65;2.70;;;12.60;99.90;;;;;;5054481;28;20128;-84
2023/10/04 06:50:42;;;;;;;15.57;3.58;;;12.60;99.90;;;;;;5055406;28;20150;-86
2023/10/04 06:53:17;;;;;;;12.13;3.28;;;12.60;99.90;;;;;;5041456;28;20084;-85
2023/10/04 06:55:43;;;;;;;11.80;2.63;;;12.60;99.90;;;;;;5047896;28;20053;-84
2023/10/04 06:58:13;;;;;;;13.45;2.83;;;12.60;99.90;;;;;;5054488;28;20061;-85
2023/10/04 07:00:40;;;;;;;10.63;2.90;;;12.60;99.90;;;;;;5055852;28;20041;-85
2023/10/04 07:03:06;;;;;;;18.63;4.72;;;12.60;99.90;;;;;;5056335;28;20059;-85
2023/10/04 07:05:37;;;;;;;11.00;2.60;;;12.70;99.90;;;;;;5050774;28;20528;-86
2023/10/04 07:08:08;;;;;;;11.38;4.25;;;12.70;99.90;;;;;;5022774;28;20465;-84
2023/10/04 07:10:35;;;;;;;14.98;3.22;;;12.70;99.90;;;;;;5023401;28;20084;-84
2023/10/04 07:13:06;;;;;;;13.93;3.03;;;12.70;99.90;;;;;;5053435;28;20535;-87
2023/10/04 07:15:35;;;;;;;14.45;3.30;;;12.70;99.90;;;;;;5053971;28;20128;-85
2023/10/04 07:18:12;;;;;;;13.85;3.20;;;12.70;99.90;;;;;;5055165;28;20068;-86
2023/10/04 07:20:38;;;;;;;11.68;3.53;;;12.80;99.90;;;;;;5053147;28;20130;-86
2023/10/04 07:23:13;;;;;;;15.35;3.20;;;12.80;99.90;;;;;;5052922;28;20049;-87
2023/10/04 07:25:47;;;;;;;13.50;3.47;;;12.80;99.90;;;;;;5047867;28;20037;-87
2023/10/04 07:28:15;;;;;;;16.10;3.90;;;12.90;99.90;;;;;;5048105;28;20083;-87
2023/10/04 07:30:41;;;;;;;21.55;4.25;;;12.80;99.90;;;;;;5017909;28;20075;-89
2023/10/04 07:33:07;;;;;;;15.32;3.42;;;12.90;99.90;;;;;;5047991;28;20433;-88
2023/10/04 07:35:34;;;;;;;16.25;4.65;;;12.90;99.90;;;;;;5043619;28;20040;-86
2023/10/04 07:38:06;;;;;;;8.93;3.08;;;13.00;99.90;;;;;;5036598;28;20040;-87
2023/10/04 07:40:35;;;;;;;13.55;3.28;;;13.00;99.90;;;;;;5027371;28;20052;-88
2023/10/04 07:43:01;;;;;;;14.00;3.65;;;13.10;99.90;;;;;;5054868;28;20049;-86
2023/10/04 07:45:28;;;;;;;11.95;3.45;;;13.10;99.90;;;;;;5048859;28;20041;-86
2023/10/04 07:47:57;;;;;;;16.58;5.28;;;13.10;99.90;;;;;;5073237;28;20394;-86
2023/10/04 07:50:24;;;;;;;12.27;3.42;;;13.10;99.90;;;;;;5049460;28;20073;-88
2023/10/04 07:52:54;;;;;;;13.15;3.95;;;13.20;99.90;;;;;;5048240;28;20084;-88
2023/10/04 07:55:29;;;;;;;12.43;3.20;;;13.30;99.90;;;;;;5058312;28;20057;-86
2023/10/04 07:58:04;;;;;;;12.65;4.10;;;13.30;99.90;;;;;;5057305;28;20049;-86
2023/10/04 08:00:37;;;;;;;16.38;4.55;;;13.40;99.90;;;;;;5057238;28;20120;-88
2023/10/04 08:03:06;;;;;;;15.50;3.90;;;13.40;99.90;;;;;;5057658;28;20064;-87
2023/10/04 08:05:33;;;;;;;13.18;3.10;;;13.50;99.90;;;;;;5041365;28;20049;-87
2023/10/04 08:08:04;;;;;;;11.43;3.30;;;13.50;99.90;;;;;;5058091;28;20049;-87
2023/10/04 08:10:37;;;;;;;15.77;4.18;;;13.60;99.90;;;;;;5056733;28;20041;-85
2023/10/04 08:13:06;;;;;;;12.93;3.42;;;13.60;99.90;;;;;;5044338;28;20041;-88
2023/10/04 08:15:35;;;;;;;15.32;3.58;;;13.70;99.90;;;;;;5041153;28;20053;-87
2023/10/04 08:18:01;;;;;;;19.60;3.78;;;13.70;99.90;;;;;;5059932;28;20130;-87
2023/10/04 08:20:29;;;;;;;13.73;3.15;;;13.70;99.90;;;;;;5039602;28;20104;-89
2023/10/04 08:22:58;;;;;;;15.20;4.07;;;13.80;99.90;;;;;;5034355;28;20075;-85
2023/10/04 08:25:42;;;;;;;12.43;3.55;;;13.80;99.90;;;;;;5038638;28;20092;-87
2023/10/04 08:28:09;;;;;;;15.60;4.22;;;13.90;99.90;;;;;;5059373;28;20033;-88
2023/10/04 08:30:40;;;;;;;15.20;2.88;;;13.90;99.90;;;;;;5049732;28;20099;-87
2023/10/04 08:33:06;;;;;;;17.73;3.22;;;14.00;99.90;;;;;;5058934;28;20399;-86
2023/10/04 08:35:36;;;;;;;17.73;3.38;;;14.00;99.90;;;;;;5050837;28;20048;-87
2023/10/04 08:38:06;;;;;;;12.60;3.28;;;14.00;99.90;;;;;;5049026;28;20053;-88
2023/10/04 08:40:41;;;;;;;18.95;3.53;;;14.00;99.90;;;;;;5046861;28;20716;-84
2023/10/04 08:43:10;;;;;;;13.60;3.42;;;14.10;99.90;;;;;;5039781;28;20056;-87
2023/10/04 08:45:36;;;;;;;11.77;3.55;;;14.10;99.90;;;;;;5024677;28;20400;-88
2023/10/04 08:48:03;;;;;;;15.32;3.42;;;14.20;99.90;;;;;;5052101;28;20060;-88
2023/10/04 08:50:53;;;;;;;13.57;3.83;;;14.20;99.90;;;;;;5033764;28;20079;-87
2023/10/04 08:53:34;;;;;;;13.70;3.08;;;14.20;99.90;;;;;;5059625;28;20045;-88
2023/10/04 08:56:13;;;;;;;14.80;3.28;;;14.30;99.90;;;;;;5059857;28;20056;-86
2023/10/04 08:58:40;;;;;;;10.20;2.70;;;14.30;99.90;;;;;;5058920;28;20049;-88
2023/10/04 09:01:06;;;;;;;10.80;3.10;;;14.30;99.90;;;;;;5059324;28;20437;-88
2023/10/04 09:03:36;;;;;;;15.30;4.25;;;14.40;99.90;;;;;;5058837;28;20052;-88
2023/10/04 09:06:10;;;;;;;13.90;3.40;;;14.40;99.90;;;;;;5055717;28;20041;-86
2023/10/04 09:08:40;;;;;;;10.43;3.22;;;14.50;99.90;;;;;;5050486;28;20041;-86
2023/10/04 09:11:13;;;;;;;12.73;3.20;;;14.50;99.90;;;;;;5045997;28;20052;-88
2023/10/04 09:13:52;;;;;;;14.38;3.67;;;14.60;99.90;;;;;;5042219;28;20072;-88
2023/10/04 09:16:29;;;;;;;17.65;3.30;;;14.70;99.90;;;;;;5042098;28;20041;-87
2023/10/04 09:19:09;;;;;;;12.23;3.13;;;14.80;99.90;;;;;;5041932;28;20078;-87
2023/10/04 09:21:38;;;;;;;11.40;3.08;;;15.00;99.90;;;;;;5052879;28;20129;-86
2023/10/04 09:24:09;;;;;;;13.75;3.50;;;15.10;99.90;;;;;;5058448;28;20045;-86
2023/10/04 09:26:56;;;;;;;8.90;3.10;;;15.20;99.90;;;;;;5058662;28;20053;-86
2023/10/04 09:29:38;;;;;;;11.38;2.78;;;15.40;99.90;;;;;;5051488;28;20049;-87
2023/10/04 09:32:09;;;;;;;12.55;3.35;;;15.50;99.90;;;;;;5038478;28;20045;-87
2023/10/04 09:34:34;;;;;;;12.43;3.40;;;15.70;99.90;;;;;;5053851;28;20258;-85
2023/10/04 09:37:00;;;;;;;13.32;2.92;;;15.80;99.90;;;;;;5048619;28;20505;-86
2023/10/04 09:39:32;;;;;;;11.57;3.30;;;16.00;99.90;;;;;;5040655;28;20443;-87
2023/10/04 09:41:59;;;;;;;13.82;3.50;;;16.20;99.90;;;;;;5056207;28;20493;-87
2023/10/04 09:44:30;;;;;;;7.22;3.33;;;16.40;99.90;;;;;;5056317;28;20057;-85
2023/10/04 09:47:01;;;;;;;10.27;3.53;;;16.50;99.90;;;;;;5049754;28;20072;-87
2023/10/04 09:49:34;;;;;;;15.57;3.40;;;16.60;99.90;;;;;;5056658;28;20088;-86
2023/10/04 09:52:16;;;;;;;14.50;3.35;;;16.70;99.90;;;;;;5048945;28;20092;-87
2023/10/04 09:54:43;;;;;;;12.18;3.28;;;16.70;99.90;;;;;;5054568;28;20443;-87
2023/10/04 09:57:12;;;;;;;14.02;3.97;;;16.60;99.90;;;;;;5056590;28;20053;-86
2023/10/04 09:59:39;;;;;;;11.45;3.40;;;16.60;99.90;;;;;;5056717;28;20447;-86
2023/10/04 10:02:09;;;;;;;13.63;3.25;;;16.50;99.90;;;;;;5056014;28;20041;-87
2023/10/04 10:04:44;;;;;;;14.45;3.70;;;16.50;99.90;;;;;;5056332;28;20045;-88
2023/10/04 10:07:18;;;;;;;21.00;3.80;;;16.40;99.90;;;;;;5047772;28;20045;-87
2023/10/04 10:10:11;;;;;;;11.00;3.08;;;16.40;99.90;;;;;;5050149;28;20056;-85
2023/10/04 10:12:43;;;;;;;11.10;2.55;;;16.30;99.90;;;;;;5052976;28;20047;-88
2023/10/04 10:15:11;;;;;;;14.10;3.28;;;16.20;99.90;;;;;;5052005;28;20049;-86
2023/10/04 10:17:40;;;;;;;12.38;3.08;;;16.20;99.90;;;;;;5019291;28;20045;-86
2023/10/04 10:20:11;;;;;;;14.48;4.15;;;16.20;99.90;;;;;;5046388;28;20048;-86
2023/10/04 10:23:02;;;;;;;9.77;3.28;;;16.20;99.90;;;;;;5052127;28;20486;-87
2023/10/04 10:25:32;;;;;;;12.15;3.20;;;16.10;99.90;;;;;;5055529;28;20525;-85
2023/10/04 10:28:03;;;;;;;11.32;3.05;;;16.10;99.90;;;;;;5040858;28;20505;-86
2023/10/04 10:30:35;;;;;;;11.73;4.05;;;16.10;99.90;;;;;;5044731;28;20040;-88
2023/10/04 10:33:02;;;;;;;14.30;3.50;;;16.10;99.90;;;;;;5056973;28;20040;-87
2023/10/04 10:35:48;;;;;;;12.43;3.78;;;16.20;99.90;;;;;;5051386;28;20053;-86
2023/10/04 10:38:47;;;;;;;11.25;3.30;;;16.20;99.90;;;;;;5045455;28;20115;-86
2023/10/04 10:41:31;;;;;;;12.70;3.25;;;16.20;99.90;;;;;;5048869;28;20044;-87
2023/10/04 10:44:19;;;;;;;15.10;4.20;;;16.20;99.90;;;;;;5054544;28;20071;-88
2023/10/04 10:47:06;;;;;;;10.88;3.60;;;16.30;99.90;;;;;;5048927;28;20040;-89
2023/10/04 10:49:40;;;;;;;14.27;3.35;;;16.30;99.90;;;;;;5036439;28;20075;-88
2023/10/04 10:52:19;;;;;;;12.80;3.58;;;16.40;99.90;;;;;;5056175;28;20527;-88
2023/10/04 10:54:48;;;;;;;12.18;3.65;;;16.40;99.90;;;;;;5054144;28;20055;-88
2023/10/04 10:57:14;;;;;;;14.77;4.03;;;16.50;99.90;;;;;;5041236;28;20076;-87
2023/10/04 10:59:40;;;;;;;11.50;3.72;;;16.50;99.90;;;;;;5042182;28;20104;-88
2023/10/04 11:02:06;;;;;;;10.75;3.70;;;16.50;99.90;;;;;;5056796;28;20136;-89
2023/10/04 11:04:34;;;;;;;10.63;3.58;;;16.60;99.90;;;;;;5037039;28;20051;-89
2023/10/04 11:06:59;;;;;;;11.88;3.90;;;16.50;99.90;;;;;;5047698;28;20049;-88
2023/10/04 11:09:26;;;;;;;11.43;3.78;;;16.60;99.90;;;;;;5056472;28;20052;-89
2023/10/04 11:11:53;;;;;;;14.65;3.70;;;16.60;99.90;;;;;;5038797;28;20060;-88
2023/10/04 11:14:22;;;;;;;11.68;3.20;;;16.60;99.90;;;;;;5052624;28;20060;-87
2023/10/04 11:16:48;;;;;;;9.77;3.55;;;16.60;99.90;;;;;;5061179;28;20095;-88
2023/10/04 11:19:15;;;;;;;13.73;4.10;;;16.60;99.90;;;;;;5057325;28;20155;-87
2023/10/04 11:21:45;;;;;;;10.00;3.70;;;16.60;99.90;;;;;;5035006;28;20515;-89
2023/10/04 11:24:14;;;;;;;14.63;4.55;;;16.60;99.90;;;;;;5034877;28;20507;-91
2023/10/04 11:26:41;;;;;;;11.75;4.32;;;16.60;99.90;;;;;;5050393;28;20053;-89
2023/10/04 11:29:09;;;;;;;11.88;3.17;;;16.70;99.90;;;;;;5041442;28;20505;-90
2023/10/04 11:31:35;;;;;;;14.75;4.22;;;16.70;99.90;;;;;;5039991;28;20048;-89
2023/10/04 11:34:04;;;;;;;12.27;3.60;;;16.60;99.90;;;;;;5045414;28;20174;-88
2023/10/04 11:36:35;;;;;;;8.60;2.92;;;16.60;99.90;;;;;;5044573;28;20053;-89
2023/10/04 11:39:09;;;;;;;10.48;3.47;;;16.60;99.90;;;;;;5044864;28;20042;-85
2023/10/04 11:41:39;;;;;;;13.82;3.55;;;16.60;99.90;;;;;;5038282;28;20505;-87
2023/10/04 11:44:06;;;;;;;10.90;3.25;;;16.60;99.90;;;;;;5057594;28;20059;-87
2023/10/04 11:46:55;;;;;;;10.05;3.20;;;16.70;99.90;;;;;;5035396;28;20123;-88
2023/10/04 11:49:24;;;;;;;13.35;2.90;;;16.70;99.90;;;;;;5058799;28;20108;-86
2023/10/04 11:51:51;;;;;;;13.23;4.07;;;16.70;99.90;;;;;;5058823;28;20108;-86
2023/10/04 11:54:19;;;;;;;14.68;4.18;;;16.70;99.90;;;;;;5042242;28;20551;-89
2023/10/04 11:56:44;;;;;;;11.63;3.70;;;16.70;99.90;;;;;;5043754;28;20056;-90
2023/10/04 11:59:13;;;;;;;12.48;3.22;;;16.70;99.90;;;;;;5044135;28;20037;-91
2023/10/04 12:01:44;;;;;;;13.88;3.60;;;16.70;99.90;;;;;;5060096;28;20123;-90
2023/10/04 12:04:15;;;;;;;11.75;3.88;;;16.80;99.90;;;;;;5055661;28;20059;-90
2023/10/04 12:06:42;;;;;;;12.07;3.78;;;16.90;99.90;;;;;;5032953;28;20444;-91
2023/10/04 12:09:08;;;;;;;14.48;3.72;;;17.00;99.90;;;;;;5050857;28;20044;-90
2023/10/04 12:11:38;;;;;;;13.60;3.65;;;17.10;99.90;;;;;;5056029;28;20456;-89
2023/10/04 12:14:06;;;;;;;12.43;3.03;;;17.10;99.90;;;;;;5050326;28;20127;-90
2023/10/04 12:16:33;;;;;;;18.02;3.88;;;17.10;99.90;;;;;;5054832;28;20079;-89
2023/10/04 12:19:02;;;;;;;11.63;3.65;;;17.10;99.90;;;;;;5055718;28;20045;-88
2023/10/04 12:21:28;;;;;;;10.77;3.33;;;17.10;99.90;;;;;;5046784;28;20133;-86
2023/10/04 12:23:54;;;;;;;11.77;3.40;;;17.10;99.90;;;;;;5060494;28;20084;-84
2023/10/04 12:26:20;;;;;;;13.75;3.83;;;17.10;99.90;;;;;;5052120;28;20041;-88
2023/10/04 12:28:55;;;;;;;11.57;3.25;;;17.20;99.90;;;;;;5040997;28;20054;-88
2023/10/04 12:31:22;;;;;;;12.60;2.95;;;17.20;99.90;;;;;;5049547;28;20054;-87
2023/10/04 12:33:53;;;;;;;13.07;3.55;;;17.20;99.90;;;;;;5041999;28;20051;-82
2023/10/04 12:36:20;;;;;;;14.50;3.35;;;17.20;99.90;;;;;;5048391;28;20052;-88
2023/10/04 12:38:47;;;;;;;10.77;3.50;;;17.20;99.90;;;;;;5053344;28;20075;-86
2023/10/04 12:41:14;;;;;;;12.35;3.05;;;17.20;99.90;;;;;;5054697;28;20440;-85
2023/10/04 12:43:41;;;;;;;9.15;2.88;;;17.20;99.90;;;;;;5053606;28;20061;-85
2023/10/04 12:46:07;;;;;;;13.73;3.13;;;17.20;99.90;;;;;;5050779;28;20143;-86
2023/10/04 12:48:36;;;;;;;12.43;3.30;;;17.20;99.90;;;;;;5047131;28;20057;-86
2023/10/04 12:51:02;;;;;;;16.52;3.60;;;17.30;99.90;;;;;;5060132;28;20517;-87
2023/10/04 12:53:28;;;;;;;11.32;3.17;;;17.40;99.90;;;;;;5058917;28;20041;-90
2023/10/04 12:55:57;;;;;;;13.43;3.70;;;17.40;99.90;;;;;;5055502;28;20049;-86
2023/10/04 12:58:23;;;;;;;11.68;3.42;;;17.50;99.90;;;;;;5052769;28;20045;-86
2023/10/04 13:00:50;;;;;;;15.05;3.22;;;17.60;99.90;;;;;;5055688;28;20382;-87